sensor_id;sensor_type;location;lat;lon;timestamp;pressure;altitude;pressure_sealevel;temperature;humidity
39243;BME280;29823;47.404;8.566;2022-07-06T00:00:09;96996.50;;;17.47;100.00
39243;BME280;29823;47.404;8.566;2022-07-06T00:02:37;96997.09;;;17.59;100.00
39243;BME280;29823;47.404;8.566;2022-07-06T00:05:07;96990.84;;;17.58;100.00
39243;BME280;29823;47.404;8.566;2022-07-06T00:07:35;96984.97;;;17.71;100.00
39243;BME280;29823;47.404;8.566;2022-07-06T00:10:04;96994.13;;;17.60;100.00
39243;BME280;29823;47.404;8.566;2022-07-06T00:12:32;96991.91;;;17.52;100.00
39243;BME280;29823;47.404;8.566;2022-07-06T00:15:00;96991.13;;;17.52;100.00
39243;BME280;29823;47.404;8.566;2022-07-06T00:17:29;96990.53;;;17.45;100.00
39243;BME280;29823;47.404;8.566;2022-07-06T00:19:57;96998.44;;;17.56;100.00
39243;BME280;29823;47.404;8.566;2022-07-06T00:22:25;96996.47;;;17.42;100.00
39243;BME280;29823;47.404;8.566;2022-07-06T00:24:54;96988.53;;;17.30;100.00
39243;BME280;29823;47.404;8.566;2022-07-06T00:27:22;96988.09;;;17.43;100.00
39243;BME280;29823;47.404;8.566;2022-07-06T00:29:50;96989.75;;;17.49;100.00
39243;BME280;29823;47.404;8.566;2022-07-06T00:32:18;96994.38;;;17.54;100.00
39243;BME280;29823;47.404;8.566;2022-07-06T00:34:47;96992.41;;;17.39;100.00
39243;BME280;29823;47.404;8.566;2022-07-06T00:37:15;96994.47;;;17.32;100.00
39243;BME280;29823;47.404;8.566;2022-07-06T00:39:43;96998.22;;;17.26;100.00
39243;BME280;29823;47.404;8.566;2022-07-06T00:42:11;96999.22;;;17.52;100.00
39243;BME280;29823;47.404;8.566;2022-07-06T00:44:39;97005.91;;;17.39;100.00
39243;BME280;29823;47.404;8.566;2022-07-06T00:47:08;97005.25;;;17.22;100.00
39243;BME280;29823;47.404;8.566;2022-07-06T00:49:36;97014.16;;;17.23;100.00
39243;BME280;29823;47.404;8.566;2022-07-06T00:52:23;97018.16;;;17.15;100.00
39243;BME280;29823;47.404;8.566;2022-07-06T00:54:51;97013.34;;;17.22;100.00
39243;BME280;29823;47.404;8.566;2022-07-06T00:57:20;97010.63;;;17.17;100.00
39243;BME280;29823;47.404;8.566;2022-07-06T00:59:48;97009.09;;;17.36;100.00
39243;BME280;29823;47.404;8.566;2022-07-06T01:02:16;96996.09;;;17.28;100.00
39243;BME280;29823;47.404;8.566;2022-07-06T01:04:44;96996.88;;;17.29;100.00
39243;BME280;29823;47.404;8.566;2022-07-06T01:07:13;96996.56;;;17.20;100.00
39243;BME280;29823;47.404;8.566;2022-07-06T01:09:42;96989.31;;;17.26;100.00
39243;BME280;29823;47.404;8.566;2022-07-06T01:12:10;96984.66;;;17.16;100.00
39243;BME280;29823;47.404;8.566;2022-07-06T01:14:38;96983.81;;;17.11;100.00
39243;BME280;29823;47.404;8.566;2022-07-06T01:17:06;96987.81;;;17.03;100.00
39243;BME280;29823;47.404;8.566;2022-07-06T01:19:35;96992.38;;;16.98;100.00
39243;BME280;29823;47.404;8.566;2022-07-06T01:22:04;96985.50;;;16.80;100.00
39243;BME280;29823;47.404;8.566;2022-07-06T01:24:34;96995.03;;;16.61;100.00
39243;BME280;29823;47.404;8.566;2022-07-06T01:27:03;96992.31;;;16.56;100.00
39243;BME280;29823;47.404;8.566;2022-07-06T01:29:31;96989.47;;;16.73;100.00
39243;BME280;29823;47.404;8.566;2022-07-06T01:32:00;96985.91;;;16.67;100.00
39243;BME280;29823;47.404;8.566;2022-07-06T01:34:28;96984.88;;;16.68;100.00
39243;BME280;29823;47.404;8.566;2022-07-06T01:36:56;96982.97;;;16.69;100.00
39243;BME280;29823;47.404;8.566;2022-07-06T01:39:25;96987.72;;;16.57;100.00
39243;BME280;29823;47.404;8.566;2022-07-06T01:41:53;96985.81;;;16.52;100.00
39243;BME280;29823;47.404;8.566;2022-07-06T01:44:20;96981.50;;;16.56;100.00
39243;BME280;29823;47.404;8.566;2022-07-06T01:46:48;96973.34;;;16.51;100.00
39243;BME280;29823;47.404;8.566;2022-07-06T01:49:16;96989.50;;;16.41;100.00
39243;BME280;29823;47.404;8.566;2022-07-06T01:51:44;96983.44;;;16.34;100.00
39243;BME280;29823;47.404;8.566;2022-07-06T01:54:12;96985.72;;;16.42;100.00
39243;BME280;29823;47.404;8.566;2022-07-06T01:56:41;96987.94;;;16.50;100.00
39243;BME280;29823;47.404;8.566;2022-07-06T01:59:09;96993.91;;;16.52;100.00
39243;BME280;29823;47.404;8.566;2022-07-06T02:01:37;96983.84;;;16.48;100.00
39243;BME280;29823;47.404;8.566;2022-07-06T02:04:05;96983.44;;;16.34;100.00
39243;BME280;29823;47.404;8.566;2022-07-06T02:06:33;96981.50;;;16.30;100.00
39243;BME280;29823;47.404;8.566;2022-07-06T02:09:01;96987.53;;;16.10;100.00
39243;BME280;29823;47.404;8.566;2022-07-06T02:11:29;96989.38;;;16.31;100.00
39243;BME280;29823;47.404;8.566;2022-07-06T02:13:58;96983.13;;;16.31;100.00
39243;BME280;29823;47.404;8.566;2022-07-06T02:16:26;96985.91;;;16.09;100.00
39243;BME280;29823;47.404;8.566;2022-07-06T02:18:54;96993.03;;;16.20;100.00
39243;BME280;29823;47.404;8.566;2022-07-06T02:21:22;96993.47;;;16.12;100.00
39243;BME280;29823;47.404;8.566;2022-07-06T02:23:50;96993.59;;;15.96;100.00
39243;BME280;29823;47.404;8.566;2022-07-06T02:26:18;96989.56;;;15.98;100.00
39243;BME280;29823;47.404;8.566;2022-07-06T02:28:45;96987.84;;;15.92;100.00
39243;BME280;29823;47.404;8.566;2022-07-06T02:31:15;96982.97;;;15.89;100.00
39243;BME280;29823;47.404;8.566;2022-07-06T02:33:43;96982.13;;;16.10;100.00
39243;BME280;29823;47.404;8.566;2022-07-06T02:36:11;96984.53;;;16.07;100.00
39243;BME280;29823;47.404;8.566;2022-07-06T02:38:39;96980.91;;;15.96;100.00
39243;BME280;29823;47.404;8.566;2022-07-06T02:41:06;96987.47;;;16.05;100.00
39243;BME280;29823;47.404;8.566;2022-07-06T02:43:36;96981.53;;;16.03;100.00
39243;BME280;29823;47.404;8.566;2022-07-06T02:46:04;96981.00;;;16.06;100.00
39243;BME280;29823;47.404;8.566;2022-07-06T02:48:34;96978.59;;;16.10;100.00
39243;BME280;29823;47.404;8.566;2022-07-06T02:51:02;96984.97;;;15.99;100.00
39243;BME280;29823;47.404;8.566;2022-07-06T02:53:30;96989.88;;;16.02;100.00
39243;BME280;29823;47.404;8.566;2022-07-06T02:55:58;96994.00;;;16.09;100.00
39243;BME280;29823;47.404;8.566;2022-07-06T02:58:25;97000.97;;;16.05;100.00
39243;BME280;29823;47.404;8.566;2022-07-06T03:00:53;96998.00;;;16.07;100.00
39243;BME280;29823;47.404;8.566;2022-07-06T03:03:21;96996.59;;;15.99;100.00
39243;BME280;29823;47.404;8.566;2022-07-06T03:05:51;96998.41;;;15.94;100.00
39243;BME280;29823;47.404;8.566;2022-07-06T03:08:18;97001.88;;;15.89;100.00
39243;BME280;29823;47.404;8.566;2022-07-06T03:10:47;97004.00;;;15.87;100.00
39243;BME280;29823;47.404;8.566;2022-07-06T03:13:14;97002.69;;;15.90;100.00
39243;BME280;29823;47.404;8.566;2022-07-06T03:15:42;96997.53;;;15.88;100.00
39243;BME280;29823;47.404;8.566;2022-07-06T03:18:10;96995.84;;;15.82;100.00
39243;BME280;29823;47.404;8.566;2022-07-06T03:20:38;97005.25;;;15.80;100.00
39243;BME280;29823;47.404;8.566;2022-07-06T03:23:07;97000.13;;;15.78;100.00
39243;BME280;29823;47.404;8.566;2022-07-06T03:25:35;97003.88;;;15.77;100.00
39243;BME280;29823;47.404;8.566;2022-07-06T03:28:03;96998.50;;;15.77;100.00
39243;BME280;29823;47.404;8.566;2022-07-06T03:30:31;97006.56;;;15.77;100.00
39243;BME280;29823;47.404;8.566;2022-07-06T03:32:58;97004.63;;;15.73;100.00
39243;BME280;29823;47.404;8.566;2022-07-06T03:35:26;97011.00;;;15.67;100.00
39243;BME280;29823;47.404;8.566;2022-07-06T03:37:54;97003.25;;;15.70;100.00
39243;BME280;29823;47.404;8.566;2022-07-06T03:40:23;97016.47;;;15.72;100.00
39243;BME280;29823;47.404;8.566;2022-07-06T03:42:51;97003.81;;;15.72;100.00
39243;BME280;29823;47.404;8.566;2022-07-06T03:45:19;97003.56;;;15.74;100.00
39243;BME280;29823;47.404;8.566;2022-07-06T03:47:46;97008.91;;;15.69;100.00
39243;BME280;29823;47.404;8.566;2022-07-06T03:50:14;97014.84;;;15.71;100.00
39243;BME280;29823;47.404;8.566;2022-07-06T03:52:42;97010.13;;;15.83;100.00
39243;BME280;29823;47.404;8.566;2022-07-06T03:55:11;97008.13;;;15.73;100.00
39243;BME280;29823;47.404;8.566;2022-07-06T03:57:40;97015.69;;;15.71;100.00
39243;BME280;29823;47.404;8.566;2022-07-06T04:00:09;97013.06;;;15.81;100.00
39243;BME280;29823;47.404;8.566;2022-07-06T04:02:37;97023.75;;;15.71;100.00
39243;BME280;29823;47.404;8.566;2022-07-06T04:05:06;97023.50;;;15.73;100.00
39243;BME280;29823;47.404;8.566;2022-07-06T04:07:34;97018.31;;;15.66;100.00
39243;BME280;29823;47.404;8.566;2022-07-06T04:10:02;97013.28;;;15.75;100.00
39243;BME280;29823;47.404;8.566;2022-07-06T04:12:30;97009.59;;;15.81;100.00
39243;BME280;29823;47.404;8.566;2022-07-06T04:14:59;97013.13;;;15.86;100.00
39243;BME280;29823;47.404;8.566;2022-07-06T04:17:27;97013.25;;;15.96;100.00
39243;BME280;29823;47.404;8.566;2022-07-06T04:20:12;97016.53;;;15.98;100.00
39243;BME280;29823;47.404;8.566;2022-07-06T04:22:40;97022.59;;;16.10;100.00
39243;BME280;29823;47.404;8.566;2022-07-06T04:25:08;97019.38;;;16.13;100.00
39243;BME280;29823;47.404;8.566;2022-07-06T04:27:36;97023.19;;;16.17;100.00
39243;BME280;29823;47.404;8.566;2022-07-06T04:30:06;97019.19;;;16.20;100.00
39243;BME280;29823;47.404;8.566;2022-07-06T04:32:34;97023.06;;;16.29;100.00
39243;BME280;29823;47.404;8.566;2022-07-06T04:35:03;97030.69;;;16.37;100.00
39243;BME280;29823;47.404;8.566;2022-07-06T04:37:31;97029.00;;;16.52;100.00
39243;BME280;29823;47.404;8.566;2022-07-06T04:39:59;97033.88;;;16.55;100.00
39243;BME280;29823;47.404;8.566;2022-07-06T04:42:27;97036.72;;;16.70;100.00
39243;BME280;29823;47.404;8.566;2022-07-06T04:44:55;97033.81;;;16.77;100.00
39243;BME280;29823;47.404;8.566;2022-07-06T04:47:24;97036.91;;;16.90;100.00
39243;BME280;29823;47.404;8.566;2022-07-06T04:49:52;97038.59;;;17.01;100.00
39243;BME280;29823;47.404;8.566;2022-07-06T04:52:20;97034.38;;;17.15;100.00
39243;BME280;29823;47.404;8.566;2022-07-06T04:54:48;97042.53;;;17.25;100.00
39243;BME280;29823;47.404;8.566;2022-07-06T04:57:15;97042.88;;;17.34;100.00
39243;BME280;29823;47.404;8.566;2022-07-06T04:59:43;97042.94;;;17.39;100.00
39243;BME280;29823;47.404;8.566;2022-07-06T05:02:11;97045.41;;;17.45;100.00
39243;BME280;29823;47.404;8.566;2022-07-06T05:04:40;97046.88;;;17.63;100.00
39243;BME280;29823;47.404;8.566;2022-07-06T05:07:08;97031.22;;;17.70;100.00
39243;BME280;29823;47.404;8.566;2022-07-06T05:09:36;97043.94;;;17.74;100.00
39243;BME280;29823;47.404;8.566;2022-07-06T05:12:04;97042.88;;;17.80;100.00
39243;BME280;29823;47.404;8.566;2022-07-06T05:14:32;97039.13;;;17.81;100.00
39243;BME280;29823;47.404;8.566;2022-07-06T05:16:59;97037.00;;;17.93;100.00
39243;BME280;29823;47.404;8.566;2022-07-06T05:19:27;97044.66;;;18.11;100.00
39243;BME280;29823;47.404;8.566;2022-07-06T05:21:56;97045.50;;;18.22;100.00
39243;BME280;29823;47.404;8.566;2022-07-06T05:24:24;97042.53;;;18.28;100.00
39243;BME280;29823;47.404;8.566;2022-07-06T05:26:52;97045.84;;;18.35;100.00
39243;BME280;29823;47.404;8.566;2022-07-06T05:29:20;97039.09;;;18.53;100.00
39243;BME280;29823;47.404;8.566;2022-07-06T05:31:47;97043.16;;;18.35;100.00
39243;BME280;29823;47.404;8.566;2022-07-06T05:34:16;97041.56;;;18.59;96.83
39243;BME280;29823;47.404;8.566;2022-07-06T05:36:44;97044.81;;;18.51;100.00
39243;BME280;29823;47.404;8.566;2022-07-06T05:39:13;97051.28;;;18.55;99.34
39243;BME280;29823;47.404;8.566;2022-07-06T05:41:45;97050.22;;;18.51;90.36
39243;BME280;29823;47.404;8.566;2022-07-06T05:44:13;97049.16;;;18.87;92.80
39243;BME280;29823;47.404;8.566;2022-07-06T05:46:41;97052.44;;;18.94;92.84
39243;BME280;29823;47.404;8.566;2022-07-06T05:49:09;97057.84;;;19.04;95.01
39243;BME280;29823;47.404;8.566;2022-07-06T05:51:54;97055.38;;;19.13;90.43
39243;BME280;29823;47.404;8.566;2022-07-06T05:54:24;97058.41;;;19.11;87.24
39243;BME280;29823;47.404;8.566;2022-07-06T05:56:52;97058.41;;;19.11;85.81
39243;BME280;29823;47.404;8.566;2022-07-06T05:59:19;97066.78;;;19.15;81.09
39243;BME280;29823;47.404;8.566;2022-07-06T06:01:48;97066.78;;;19.55;82.27
39243;BME280;29823;47.404;8.566;2022-07-06T06:04:16;97065.44;;;19.37;80.26
39243;BME280;29823;47.404;8.566;2022-07-06T06:06:44;97070.84;;;19.52;82.16
39243;BME280;29823;47.404;8.566;2022-07-06T06:09:11;97067.00;;;19.68;78.25
39243;BME280;29823;47.404;8.566;2022-07-06T06:11:42;97068.13;;;19.62;79.04
39243;BME280;29823;47.404;8.566;2022-07-06T06:14:09;97063.41;;;19.93;79.92
39243;BME280;29823;47.404;8.566;2022-07-06T06:16:37;97058.81;;;19.93;77.38
39243;BME280;29823;47.404;8.566;2022-07-06T06:19:05;97067.16;;;20.22;77.44
39243;BME280;29823;47.404;8.566;2022-07-06T06:21:33;97060.56;;;20.38;78.18
39243;BME280;29823;47.404;8.566;2022-07-06T06:24:01;97061.28;;;20.48;75.36
39243;BME280;29823;47.404;8.566;2022-07-06T06:26:29;97063.97;;;20.53;72.98
39243;BME280;29823;47.404;8.566;2022-07-06T06:28:58;97069.84;;;20.70;71.30
39243;BME280;29823;47.404;8.566;2022-07-06T06:31:26;97061.59;;;20.85;70.52
39243;BME280;29823;47.404;8.566;2022-07-06T06:33:53;97061.06;;;20.88;73.45
39243;BME280;29823;47.404;8.566;2022-07-06T06:36:21;97055.28;;;21.00;71.06
39243;BME280;29823;47.404;8.566;2022-07-06T06:38:49;97057.31;;;20.79;70.60
39243;BME280;29823;47.404;8.566;2022-07-06T06:41:22;97057.75;;;20.96;70.08
39243;BME280;29823;47.404;8.566;2022-07-06T06:43:50;97066.75;;;21.25;69.82
39243;BME280;29823;47.404;8.566;2022-07-06T06:46:19;97059.13;;;20.94;65.93
39243;BME280;29823;47.404;8.566;2022-07-06T06:48:46;97068.28;;;21.36;65.45
39243;BME280;29823;47.404;8.566;2022-07-06T06:51:14;97068.69;;;21.53;66.22
39243;BME280;29823;47.404;8.566;2022-07-06T06:53:42;97062.97;;;21.26;65.18
39243;BME280;29823;47.404;8.566;2022-07-06T06:56:10;97058.22;;;21.37;65.25
39243;BME280;29823;47.404;8.566;2022-07-06T06:58:38;97063.28;;;22.00;63.66
39243;BME280;29823;47.404;8.566;2022-07-06T07:01:27;97058.00;;;22.09;61.24
39243;BME280;29823;47.404;8.566;2022-07-06T07:03:56;97062.84;;;21.93;63.38
39243;BME280;29823;47.404;8.566;2022-07-06T07:06:24;97057.16;;;21.90;60.99
39243;BME280;29823;47.404;8.566;2022-07-06T07:08:52;97055.78;;;21.92;64.93
39243;BME280;29823;47.404;8.566;2022-07-06T07:11:20;97056.13;;;22.09;62.31
39243;BME280;29823;47.404;8.566;2022-07-06T07:13:48;97054.38;;;21.95;61.03
39243;BME280;29823;47.404;8.566;2022-07-06T07:16:16;97054.09;;;21.96;61.18
39243;BME280;29823;47.404;8.566;2022-07-06T07:18:45;97053.22;;;21.77;60.37
39243;BME280;29823;47.404;8.566;2022-07-06T07:21:13;97052.28;;;22.10;60.66
39243;BME280;29823;47.404;8.566;2022-07-06T07:23:41;97049.16;;;22.64;59.80
39243;BME280;29823;47.404;8.566;2022-07-06T07:26:09;97053.78;;;22.82;61.80
39243;BME280;29823;47.404;8.566;2022-07-06T07:28:37;97047.78;;;22.98;56.71
39243;BME280;29823;47.404;8.566;2022-07-06T07:31:05;97052.75;;;22.96;58.49
39243;BME280;29823;47.404;8.566;2022-07-06T07:33:33;97049.69;;;23.16;57.70
39243;BME280;29823;47.404;8.566;2022-07-06T07:36:03;97044.47;;;23.52;54.93
39243;BME280;29823;47.404;8.566;2022-07-06T07:38:31;97044.16;;;23.40;57.26
39243;BME280;29823;47.404;8.566;2022-07-06T07:40:59;97042.72;;;23.10;55.00
39243;BME280;29823;47.404;8.566;2022-07-06T07:43:26;97045.22;;;23.84;55.00
39243;BME280;29823;47.404;8.566;2022-07-06T07:45:54;97045.44;;;23.10;57.58
39243;BME280;29823;47.404;8.566;2022-07-06T07:48:22;97050.03;;;22.59;58.36
39243;BME280;29823;47.404;8.566;2022-07-06T07:50:51;97050.16;;;22.49;63.48
39243;BME280;29823;47.404;8.566;2022-07-06T07:53:20;97048.25;;;22.50;65.07
39243;BME280;29823;47.404;8.566;2022-07-06T07:55:48;97047.38;;;22.31;65.62
39243;BME280;29823;47.404;8.566;2022-07-06T07:58:15;97050.16;;;23.23;60.80
39243;BME280;29823;47.404;8.566;2022-07-06T08:00:43;97042.66;;;24.20;55.39
39243;BME280;29823;47.404;8.566;2022-07-06T08:03:12;97039.00;;;24.24;55.11
39243;BME280;29823;47.404;8.566;2022-07-06T08:05:40;97050.97;;;25.13;51.30
39243;BME280;29823;47.404;8.566;2022-07-06T08:08:08;97044.06;;;25.15;51.13
39243;BME280;29823;47.404;8.566;2022-07-06T08:10:37;97050.13;;;24.90;53.15
39243;BME280;29823;47.404;8.566;2022-07-06T08:13:25;97047.84;;;24.70;50.45
39243;BME280;29823;47.404;8.566;2022-07-06T08:15:53;97044.66;;;24.01;53.12
39243;BME280;29823;47.404;8.566;2022-07-06T08:18:20;97043.19;;;23.76;56.37
39243;BME280;29823;47.404;8.566;2022-07-06T08:20:49;97038.75;;;23.67;55.52
39243;BME280;29823;47.404;8.566;2022-07-06T08:23:37;97045.69;;;24.18;54.09
39243;BME280;29823;47.404;8.566;2022-07-06T08:26:06;97036.03;;;24.61;53.48
39243;BME280;29823;47.404;8.566;2022-07-06T08:28:40;97043.13;;;25.42;50.83
39243;BME280;29823;47.404;8.566;2022-07-06T08:31:08;97044.66;;;24.90;51.47
39243;BME280;29823;47.404;8.566;2022-07-06T08:33:56;97039.06;;;24.95;50.71
39243;BME280;29823;47.404;8.566;2022-07-06T08:36:25;97046.66;;;25.64;50.98
39243;BME280;29823;47.404;8.566;2022-07-06T08:38:52;97040.47;;;26.11;48.27
39243;BME280;29823;47.404;8.566;2022-07-06T08:41:23;97039.34;;;26.68;49.28
39243;BME280;29823;47.404;8.566;2022-07-06T08:43:52;97051.09;;;24.72;50.04
39243;BME280;29823;47.404;8.566;2022-07-06T08:46:21;97054.34;;;25.84;51.27
39243;BME280;29823;47.404;8.566;2022-07-06T08:48:49;97044.97;;;26.07;52.21
39243;BME280;29823;47.404;8.566;2022-07-06T08:51:18;97050.03;;;24.82;53.08
39243;BME280;29823;47.404;8.566;2022-07-06T08:53:51;97052.00;;;25.69;48.87
39243;BME280;29823;47.404;8.566;2022-07-06T08:56:19;97059.03;;;26.70;50.69
39243;BME280;29823;47.404;8.566;2022-07-06T08:58:48;97058.19;;;28.26;46.37
39243;BME280;29823;47.404;8.566;2022-07-06T09:01:16;97057.94;;;26.32;46.30
39243;BME280;29823;47.404;8.566;2022-07-06T09:03:45;97054.38;;;25.18;50.65
39243;BME280;29823;47.404;8.566;2022-07-06T09:06:18;97061.28;;;26.77;46.73
39243;BME280;29823;47.404;8.566;2022-07-06T09:08:48;97062.13;;;27.03;46.51
39243;BME280;29823;47.404;8.566;2022-07-06T09:11:16;97061.34;;;27.19;46.80
39243;BME280;29823;47.404;8.566;2022-07-06T09:13:44;97069.81;;;26.67;46.10
39243;BME280;29823;47.404;8.566;2022-07-06T09:16:15;97072.81;;;27.21;46.33
39243;BME280;29823;47.404;8.566;2022-07-06T09:19:03;97066.00;;;27.10;49.44
39243;BME280;29823;47.404;8.566;2022-07-06T09:21:32;97062.94;;;27.54;44.57
39243;BME280;29823;47.404;8.566;2022-07-06T09:24:07;97067.63;;;27.03;47.22
39243;BME280;29823;47.404;8.566;2022-07-06T09:26:34;97070.16;;;26.65;45.88
39243;BME280;29823;47.404;8.566;2022-07-06T09:29:02;97065.69;;;25.91;45.69
39243;BME280;29823;47.404;8.566;2022-07-06T09:31:32;97062.81;;;27.25;44.84
39243;BME280;29823;47.404;8.566;2022-07-06T09:34:02;97063.84;;;28.30;42.72
39243;BME280;29823;47.404;8.566;2022-07-06T09:36:43;97063.00;;;28.00;41.68
39243;BME280;29823;47.404;8.566;2022-07-06T09:39:22;97065.72;;;28.75;41.22
39243;BME280;29823;47.404;8.566;2022-07-06T09:41:52;97070.03;;;28.18;44.32
39243;BME280;29823;47.404;8.566;2022-07-06T09:44:24;97064.66;;;28.88;45.02
39243;BME280;29823;47.404;8.566;2022-07-06T09:46:55;97067.72;;;29.69;41.98
39243;BME280;29823;47.404;8.566;2022-07-06T09:49:24;97066.00;;;29.64;41.26
39243;BME280;29823;47.404;8.566;2022-07-06T09:51:54;97068.06;;;29.14;40.67
39243;BME280;29823;47.404;8.566;2022-07-06T09:54:22;97067.09;;;29.51;41.20
39243;BME280;29823;47.404;8.566;2022-07-06T09:56:52;97066.09;;;29.88;40.11
39243;BME280;29823;47.404;8.566;2022-07-06T09:59:21;97062.84;;;29.86;41.48
39243;BME280;29823;47.404;8.566;2022-07-06T10:01:51;97065.38;;;29.06;41.69
39243;BME280;29823;47.404;8.566;2022-07-06T10:04:23;97057.44;;;29.04;39.09
39243;BME280;29823;47.404;8.566;2022-07-06T10:06:51;97066.47;;;28.84;41.13
39243;BME280;29823;47.404;8.566;2022-07-06T10:09:21;97064.34;;;28.23;38.64
39243;BME280;29823;47.404;8.566;2022-07-06T10:11:51;97065.34;;;28.56;41.08
39243;BME280;29823;47.404;8.566;2022-07-06T10:14:21;97066.66;;;29.61;39.84
39243;BME280;29823;47.404;8.566;2022-07-06T10:16:50;97061.13;;;29.82;38.96
39243;BME280;29823;47.404;8.566;2022-07-06T10:19:19;97062.56;;;29.14;41.27
39243;BME280;29823;47.404;8.566;2022-07-06T10:21:49;97064.00;;;29.85;38.79
39243;BME280;29823;47.404;8.566;2022-07-06T10:24:19;97052.03;;;30.14;37.77
39243;BME280;29823;47.404;8.566;2022-07-06T10:26:47;97045.81;;;29.72;40.72
39243;BME280;29823;47.404;8.566;2022-07-06T10:29:15;97057.53;;;30.86;37.39
39243;BME280;29823;47.404;8.566;2022-07-06T10:31:45;97056.44;;;31.26;36.50
39243;BME280;29823;47.404;8.566;2022-07-06T10:34:15;97060.66;;;30.60;38.37
39243;BME280;29823;47.404;8.566;2022-07-06T10:36:49;97049.31;;;31.53;34.98
39243;BME280;29823;47.404;8.566;2022-07-06T10:39:32;97038.44;;;31.60;34.36
39243;BME280;29823;47.404;8.566;2022-07-06T10:42:39;97045.47;;;31.57;35.20
39243;BME280;29823;47.404;8.566;2022-07-06T10:45:08;97039.97;;;32.47;33.62
39243;BME280;29823;47.404;8.566;2022-07-06T10:47:36;97039.75;;;31.50;35.24
39243;BME280;29823;47.404;8.566;2022-07-06T10:50:04;97046.19;;;31.27;35.93
39243;BME280;29823;47.404;8.566;2022-07-06T10:52:50;97034.94;;;31.47;34.65
39243;BME280;29823;47.404;8.566;2022-07-06T10:55:29;97026.75;;;31.94;35.36
39243;BME280;29823;47.404;8.566;2022-07-06T10:57:58;97021.84;;;31.60;36.06
39243;BME280;29823;47.404;8.566;2022-07-06T11:00:48;97022.28;;;32.05;35.36
39243;BME280;29823;47.404;8.566;2022-07-06T11:03:30;97022.59;;;32.96;32.77
39243;BME280;29823;47.404;8.566;2022-07-06T11:05:58;97016.31;;;33.18;33.49
39243;BME280;29823;47.404;8.566;2022-07-06T11:11:41;97002.88;;;32.67;33.25
39243;BME280;29823;47.404;8.566;2022-07-06T11:14:11;97013.06;;;32.63;33.79
39243;BME280;29823;47.404;8.566;2022-07-06T11:16:59;97000.50;;;31.60;35.70
39243;BME280;29823;47.404;8.566;2022-07-06T11:19:28;97002.63;;;33.06;33.00
39243;BME280;29823;47.404;8.566;2022-07-06T11:22:05;97003.84;;;31.66;32.66
39243;BME280;29823;47.404;8.566;2022-07-06T11:24:36;96998.09;;;32.48;33.18
39243;BME280;29823;47.404;8.566;2022-07-06T11:27:05;96998.22;;;31.07;35.17
39243;BME280;29823;47.404;8.566;2022-07-06T11:29:34;96997.50;;;30.59;36.81
39243;BME280;29823;47.404;8.566;2022-07-06T11:32:05;97001.50;;;28.34;39.59
39243;BME280;29823;47.404;8.566;2022-07-06T11:34:39;96986.06;;;29.32;40.88
39243;BME280;29823;47.404;8.566;2022-07-06T11:37:09;96989.69;;;30.37;39.48
39243;BME280;29823;47.404;8.566;2022-07-06T11:39:41;96992.41;;;31.24;36.11
39243;BME280;29823;47.404;8.566;2022-07-06T11:42:10;96982.66;;;31.42;36.83
39243;BME280;29823;47.404;8.566;2022-07-06T11:44:40;96985.16;;;32.21;37.70
39243;BME280;29823;47.404;8.566;2022-07-06T11:47:09;96985.69;;;33.30;34.81
39243;BME280;29823;47.404;8.566;2022-07-06T11:49:39;96988.34;;;32.39;34.18
39243;BME280;29823;47.404;8.566;2022-07-06T11:52:08;96991.13;;;32.54;35.05
39243;BME280;29823;47.404;8.566;2022-07-06T11:54:41;96995.03;;;33.41;36.62
39243;BME280;29823;47.404;8.566;2022-07-06T11:57:10;96987.84;;;35.27;33.22
39243;BME280;29823;47.404;8.566;2022-07-06T11:59:41;96991.72;;;34.93;29.99
39243;BME280;29823;47.404;8.566;2022-07-06T12:02:14;96987.06;;;34.00;30.72
39243;BME280;29823;47.404;8.566;2022-07-06T12:04:44;96983.84;;;34.95;31.72
39243;BME280;29823;47.404;8.566;2022-07-06T12:07:13;96985.53;;;33.42;35.31
39243;BME280;29823;47.404;8.566;2022-07-06T12:09:45;96983.59;;;34.29;34.63
39243;BME280;29823;47.404;8.566;2022-07-06T12:12:13;96978.97;;;35.18;31.66
39243;BME280;29823;47.404;8.566;2022-07-06T12:14:43;96986.75;;;35.35;31.77
39243;BME280;29823;47.404;8.566;2022-07-06T12:17:12;96985.00;;;36.91;30.10
39243;BME280;29823;47.404;8.566;2022-07-06T12:19:41;96979.91;;;36.42;30.65
39243;BME280;29823;47.404;8.566;2022-07-06T12:22:09;96978.81;;;35.37;31.42
39243;BME280;29823;47.404;8.566;2022-07-06T12:24:42;96974.03;;;35.34;31.10
39243;BME280;29823;47.404;8.566;2022-07-06T12:27:13;96976.31;;;34.73;30.44
39243;BME280;29823;47.404;8.566;2022-07-06T12:29:41;96963.97;;;35.96;30.09
39243;BME280;29823;47.404;8.566;2022-07-06T12:32:14;96963.75;;;34.53;31.26
39243;BME280;29823;47.404;8.566;2022-07-06T12:34:42;96956.13;;;33.00;31.92
39243;BME280;29823;47.404;8.566;2022-07-06T12:37:12;96953.50;;;34.31;32.73
39243;BME280;29823;47.404;8.566;2022-07-06T12:39:41;96953.00;;;35.07;32.35
39243;BME280;29823;47.404;8.566;2022-07-06T12:42:13;96946.56;;;35.69;29.37
39243;BME280;29823;47.404;8.566;2022-07-06T12:44:46;96946.34;;;34.30;29.92
39243;BME280;29823;47.404;8.566;2022-07-06T12:47:17;96948.78;;;31.45;35.41
39243;BME280;29823;47.404;8.566;2022-07-06T12:49:46;96951.41;;;30.99;36.90
39243;BME280;29823;47.404;8.566;2022-07-06T12:52:15;96947.38;;;30.33;36.63
39243;BME280;29823;47.404;8.566;2022-07-06T12:54:45;96946.88;;;29.26;39.05
39243;BME280;29823;47.404;8.566;2022-07-06T12:57:16;96947.22;;;28.51;43.09
39243;BME280;29823;47.404;8.566;2022-07-06T12:59:46;96940.75;;;27.98;42.50
39243;BME280;29823;47.404;8.566;2022-07-06T13:02:20;96939.88;;;28.35;42.60
39243;BME280;29823;47.404;8.566;2022-07-06T13:05:09;96937.53;;;30.20;38.74
39243;BME280;29823;47.404;8.566;2022-07-06T13:07:38;96936.19;;;30.93;37.30
39243;BME280;29823;47.404;8.566;2022-07-06T13:10:09;96934.75;;;33.38;34.94